Time;durP1;ratioP1;P1;durP2;ratioP2;P2;SDS_P1;SDS_P2;PMS_P1;PMS_P2;Temp;Humidity;BMP_temperature;BMP_pressure;BME280_temperature;BME280_humidity;BME280_pressure;Samples;Min_cycle;Max_cycle;Signal;HPM_P1;HPM_P2
2023/04/11 00:01:51;;;;;;;5.00;3.33;;;11.60;99.90;;;;;;5013685;28;20021;-70
2023/04/11 00:04:19;;;;;;;5.43;3.40;;;11.70;99.90;;;;;;5010700;28;20104;-70
2023/04/11 00:06:46;;;;;;;4.50;3.00;;;11.60;99.90;;;;;;5014397;28;20073;-67
2023/04/11 00:09:12;;;;;;;4.65;3.33;;;11.50;99.90;;;;;;5014235;28;20034;-70
2023/04/11 00:11:38;;;;;;;6.35;3.47;;;11.50;99.90;;;;;;5013713;28;20048;-70
2023/04/11 00:14:04;;;;;;;4.07;2.95;;;11.50;99.90;;;;;;5016905;28;20041;-67
2023/04/11 00:16:32;;;;;;;6.05;3.47;;;11.50;99.90;;;;;;5013486;28;20025;-69
2023/04/11 00:18:59;;;;;;;4.18;2.63;;;11.50;99.90;;;;;;5016183;28;20038;-68
2023/04/11 00:21:25;;;;;;;3.30;2.55;;;11.50;99.90;;;;;;5016490;28;20159;-68
2023/04/11 00:23:54;;;;;;;4.78;3.05;;;11.50;99.90;;;;;;5020893;28;20105;-68
2023/04/11 00:26:20;;;;;;;3.17;2.45;;;11.50;99.90;;;;;;5019207;28;20101;-68
2023/04/11 00:28:46;;;;;;;4.05;2.78;;;11.40;99.90;;;;;;5020358;28;20048;-68
2023/04/11 00:31:12;;;;;;;4.03;3.05;;;11.40;99.90;;;;;;5019632;28;20042;-68
2023/04/11 00:33:38;;;;;;;5.13;2.70;;;11.30;99.90;;;;;;5022442;28;20037;-68
2023/04/11 00:36:04;;;;;;;6.40;3.50;;;11.40;99.90;;;;;;5021216;28;20433;-68
2023/04/11 00:38:30;;;;;;;6.80;3.58;;;11.40;99.90;;;;;;5020127;28;20071;-69
2023/04/11 00:40:56;;;;;;;4.75;2.85;;;11.40;99.90;;;;;;5021999;28;20030;-68
2023/04/11 00:43:21;;;;;;;5.22;3.00;;;11.40;99.90;;;;;;5021593;28;20083;-69
2023/04/11 00:45:47;;;;;;;3.47;2.85;;;11.40;99.90;;;;;;5018104;28;20158;-71
2023/04/11 00:48:13;;;;;;;4.07;2.63;;;11.40;99.90;;;;;;5019032;28;20038;-70
2023/04/11 00:50:41;;;;;;;4.20;2.78;;;11.40;99.90;;;;;;5025715;28;20034;-68
2023/04/11 00:53:09;;;;;;;3.38;2.30;;;11.30;99.90;;;;;;5019166;28;20109;-69
2023/04/11 00:55:35;;;;;;;4.30;2.47;;;11.20;99.90;;;;;;5018206;28;20502;-69
2023/04/11 00:58:02;;;;;;;3.20;2.40;;;11.20;99.90;;;;;;5018998;28;20076;-69
2023/04/11 01:00:32;;;;;;;3.30;2.55;;;11.20;99.90;;;;;;5020797;28;20205;-68
2023/04/11 01:02:59;;;;;;;5.20;2.10;;;11.20;99.90;;;;;;5014311;28;20957;-69
2023/04/11 01:05:26;;;;;;;4.18;2.60;;;11.20;99.90;;;;;;5035846;28;20040;-68
2023/04/11 01:07:54;;;;;;;3.58;2.13;;;11.30;99.90;;;;;;5019504;28;20026;-68
2023/04/11 01:10:21;;;;;;;3.45;2.50;;;11.30;99.90;;;;;;5016414;28;20065;-69
2023/04/11 01:12:47;;;;;;;3.58;2.28;;;11.30;99.90;;;;;;5017215;28;20056;-68
2023/04/11 01:15:13;;;;;;;4.18;2.53;;;11.30;99.90;;;;;;5018392;28;20116;-68
2023/04/11 01:17:40;;;;;;;5.65;2.80;;;11.20;99.90;;;;;;5017075;28;20136;-68
2023/04/11 01:20:08;;;;;;;4.70;2.40;;;11.20;99.90;;;;;;5030930;28;20052;-68
2023/04/11 01:22:37;;;;;;;3.72;2.90;;;11.20;99.90;;;;;;5028518;28;20053;-68
2023/04/11 01:25:03;;;;;;;4.53;3.13;;;11.20;99.90;;;;;;5020199;28;20095;-68
2023/04/11 01:27:29;;;;;;;5.68;2.60;;;11.20;99.90;;;;;;5018080;28;20029;-68
2023/04/11 01:29:55;;;;;;;4.45;2.75;;;11.20;99.90;;;;;;5017246;28;20039;-69
2023/04/11 01:32:21;;;;;;;7.78;2.60;;;11.20;99.90;;;;;;5015872;28;20342;-68
2023/04/11 01:34:48;;;;;;;4.30;3.00;;;11.20;99.90;;;;;;5003513;28;20053;-68
2023/04/11 01:37:14;;;;;;;3.88;2.70;;;11.20;99.90;;;;;;5017677;28;20081;-67
2023/04/11 01:39:40;;;;;;;4.72;2.88;;;11.20;99.90;;;;;;5019973;28;20029;-69
2023/04/11 01:42:07;;;;;;;4.18;2.78;;;11.20;99.90;;;;;;5020043;28;20044;-68
2023/04/11 01:44:36;;;;;;;5.20;2.80;;;11.20;99.90;;;;;;5017577;28;20394;-68
2023/04/11 01:47:02;;;;;;;4.80;2.53;;;11.20;99.90;;;;;;5018050;28;20032;-69
2023/04/11 01:49:28;;;;;;;3.40;2.25;;;11.20;99.90;;;;;;5016412;28;20041;-71
2023/04/11 01:51:54;;;;;;;4.00;2.53;;;11.10;99.90;;;;;;5045891;28;20029;-71
2023/04/11 01:54:20;;;;;;;4.78;2.70;;;11.10;99.90;;;;;;5017823;28;20398;-69
2023/04/11 01:56:46;;;;;;;4.88;3.17;;;11.10;99.90;;;;;;5020146;28;20032;-69
2023/04/11 01:59:12;;;;;;;3.63;2.42;;;11.00;99.90;;;;;;5020867;28;20597;-68
2023/04/11 02:01:39;;;;;;;4.35;2.72;;;11.00;99.90;;;;;;5015775;28;20042;-68
2023/04/11 02:04:05;;;;;;;3.13;2.03;;;11.00;99.90;;;;;;5015091;28;20030;-68
2023/04/11 02:06:30;;;;;;;5.43;2.03;;;11.00;99.90;;;;;;5019651;28;20022;-68
2023/04/11 02:08:56;;;;;;;4.13;2.58;;;10.90;99.90;;;;;;5017635;28;20533;-70
2023/04/11 02:11:22;;;;;;;6.18;2.85;;;10.80;99.90;;;;;;5015705;28;20026;-71
2023/04/11 02:13:48;;;;;;;3.95;2.30;;;10.80;99.90;;;;;;5019336;28;20029;-70
2023/04/11 02:16:13;;;;;;;4.18;2.30;;;10.70;99.90;;;;;;5019754;28;20028;-70
2023/04/11 02:18:41;;;;;;;4.70;2.60;;;10.70;99.90;;;;;;5017137;28;20402;-71
2023/04/11 02:21:07;;;;;;;5.95;2.50;;;10.70;99.90;;;;;;5042464;28;20029;-68
2023/04/11 02:23:33;;;;;;;5.68;2.78;;;10.60;99.90;;;;;;5016361;28;20762;-70
2023/04/11 02:26:01;;;;;;;4.13;2.58;;;10.70;99.90;;;;;;5017199;28;20037;-69
2023/04/11 02:28:26;;;;;;;4.13;2.50;;;10.70;99.90;;;;;;5050921;28;20105;-68
2023/04/11 02:30:52;;;;;;;5.55;2.35;;;10.70;99.90;;;;;;5016038;28;20196;-70
2023/04/11 02:33:18;;;;;;;3.38;2.30;;;10.70;99.90;;;;;;5016118;28;20021;-68
2023/04/11 02:35:45;;;;;;;4.93;2.50;;;10.70;99.90;;;;;;5015431;28;20027;-68
2023/04/11 02:38:11;;;;;;;4.05;2.50;;;10.70;99.90;;;;;;5018184;28;20053;-68
2023/04/11 02:40:36;;;;;;;5.93;2.60;;;10.70;99.90;;;;;;5016126;28;20099;-71
2023/04/11 02:43:02;;;;;;;4.55;2.38;;;10.70;99.90;;;;;;5017069;28;20096;-70
2023/04/11 02:45:28;;;;;;;4.78;2.83;;;10.70;99.90;;;;;;5014449;28;20040;-68
2023/04/11 02:47:53;;;;;;;6.18;2.70;;;10.70;99.90;;;;;;5047458;28;20429;-68
2023/04/11 02:50:19;;;;;;;6.03;2.95;;;10.70;99.90;;;;;;5015858;28;20029;-68
2023/04/11 02:52:48;;;;;;;3.60;2.70;;;10.70;99.90;;;;;;5015894;28;20045;-68
2023/04/11 02:55:13;;;;;;;4.25;2.90;;;10.70;99.90;;;;;;5016309;28;20037;-68
2023/04/11 02:57:39;;;;;;;5.78;3.00;;;10.70;99.90;;;;;;5020069;28;20366;-67
2023/04/11 03:00:06;;;;;;;6.78;3.70;;;10.80;99.90;;;;;;5015412;28;20030;-70
2023/04/11 03:02:32;;;;;;;4.72;2.72;;;10.80;99.90;;;;;;5017707;28;20022;-69
2023/04/11 03:05:02;;;;;;;4.75;2.13;;;10.70;99.90;;;;;;5016810;28;20164;-68
2023/04/11 03:07:31;;;;;;;3.70;1.90;;;10.60;99.90;;;;;;5017906;28;20087;-70
2023/04/11 03:09:58;;;;;;;5.32;2.10;;;10.50;99.90;;;;;;5014534;28;20083;-70
2023/04/11 03:12:24;;;;;;;2.90;1.50;;;10.50;99.90;;;;;;5049992;28;20030;-70
2023/04/11 03:14:49;;;;;;;3.40;1.15;;;10.40;99.90;;;;;;5011312;28;20120;-68
2023/04/11 03:17:15;;;;;;;2.60;1.20;;;10.30;99.90;;;;;;5016639;28;20049;-68
2023/04/11 03:19:41;;;;;;;8.93;1.00;;;10.20;99.90;;;;;;5035823;28;20052;-68
2023/04/11 03:22:09;;;;;;;1.30;0.88;;;10.20;99.90;;;;;;5021981;28;20026;-70
2023/04/11 03:24:35;;;;;;;1.52;0.70;;;10.20;99.90;;;;;;5021335;28;20030;-68
2023/04/11 03:27:00;;;;;;;2.03;0.82;;;10.10;99.90;;;;;;5021405;28;20044;-69
2023/04/11 03:29:26;;;;;;;1.75;0.57;;;10.10;99.90;;;;;;5017324;28;20044;-69
2023/04/11 03:31:52;;;;;;;2.10;1.17;;;10.00;99.90;;;;;;5011895;28;20105;-70
2023/04/11 03:34:18;;;;;;;1.30;0.80;;;10.00;99.90;;;;;;5016167;28;20061;-68
2023/04/11 03:36:43;;;;;;;4.43;1.30;;;9.90;99.90;;;;;;5015536;28;20064;-69
2023/04/11 03:39:09;;;;;;;3.20;1.10;;;9.90;99.90;;;;;;5015022;28;20026;-68
2023/04/11 03:41:35;;;;;;;2.13;0.90;;;9.90;99.90;;;;;;5016689;28;20394;-70
2023/04/11 03:44:00;;;;;;;4.03;1.08;;;9.80;99.90;;;;;;5015022;28;20030;-70
2023/04/11 03:46:26;;;;;;;1.05;0.73;;;9.80;99.90;;;;;;5012900;28;20048;-69
2023/04/11 03:48:52;;;;;;;1.52;0.85;;;9.80;99.90;;;;;;5013465;28;20030;-69
2023/04/11 03:51:18;;;;;;;0.82;0.70;;;9.80;99.90;;;;;;5020910;28;20056;-68
2023/04/11 03:53:43;;;;;;;4.22;0.60;;;9.70;99.90;;;;;;5016631;28;20494;-68
2023/04/11 03:56:09;;;;;;;2.03;1.17;;;9.70;99.90;;;;;;4998176;28;20017;-68
2023/04/11 03:58:35;;;;;;;2.95;0.80;;;9.70;99.90;;;;;;5012074;28;20032;-71
2023/04/11 04:01:01;;;;;;;3.28;0.90;;;9.70;99.90;;;;;;4994071;28;20068;-70
2023/04/11 04:03:27;;;;;;;5.53;0.85;;;9.70;99.90;;;;;;5014843;28;20132;-68
2023/04/11 04:05:53;;;;;;;1.30;0.77;;;9.70;99.90;;;;;;5016257;28;20397;-68
2023/04/11 04:08:19;;;;;;;2.70;0.90;;;9.70;99.90;;;;;;4997839;28;20029;-70
2023/04/11 04:10:45;;;;;;;4.88;1.33;;;9.60;99.90;;;;;;5018129;28;20085;-69
2023/04/11 04:13:11;;;;;;;4.53;1.20;;;9.60;99.90;;;;;;5015452;28;20026;-70
2023/04/11 04:15:37;;;;;;;2.13;1.30;;;9.60;99.90;;;;;;5013855;28;20045;-68
2023/04/11 04:18:03;;;;;;;1.95;1.17;;;9.60;99.90;;;;;;5013632;28;20032;-69
2023/04/11 04:20:29;;;;;;;3.35;1.17;;;9.50;99.90;;;;;;5012002;28;20537;-68
2023/04/11 04:22:55;;;;;;;2.70;0.88;;;9.50;99.90;;;;;;5013787;28;20550;-70
2023/04/11 04:25:20;;;;;;;6.97;1.25;;;9.50;99.90;;;;;;5010765;28;20026;-71
2023/04/11 04:27:47;;;;;;;2.67;1.00;;;9.50;99.90;;;;;;5012161;28;20298;-68
2023/04/11 04:30:14;;;;;;;4.18;1.33;;;9.50;99.90;;;;;;4996061;28;20113;-70
2023/04/11 04:32:44;;;;;;;1.42;0.80;;;9.40;99.90;;;;;;5011640;28;20037;-69
2023/04/11 04:35:15;;;;;;;1.30;0.90;;;9.40;99.90;;;;;;5010841;28;20061;-69
2023/04/11 04:37:44;;;;;;;2.67;1.20;;;9.40;99.90;;;;;;5014175;28;20506;-68
2023/04/11 04:40:12;;;;;;;2.15;0.77;;;9.40;99.90;;;;;;5010561;28;20413;-70
2023/04/11 04:42:40;;;;;;;2.83;1.00;;;9.30;99.90;;;;;;5009002;28;20040;-70
2023/04/11 04:45:08;;;;;;;1.98;0.70;;;9.30;99.90;;;;;;5008193;28;20034;-68
2023/04/11 04:47:35;;;;;;;4.03;0.70;;;9.30;99.90;;;;;;5008108;28;20103;-68
2023/04/11 04:50:02;;;;;;;1.80;0.40;;;9.30;99.90;;;;;;5012935;28;20057;-69
2023/04/11 04:52:31;;;;;;;2.17;0.80;;;9.30;99.90;;;;;;5011241;28;20080;-69
2023/04/11 04:54:58;;;;;;;3.22;0.95;;;9.20;99.90;;;;;;5017415;28;20091;-68
2023/04/11 04:57:28;;;;;;;2.08;0.60;;;9.20;99.90;;;;;;5014554;28;20029;-68
2023/04/11 04:59:54;;;;;;;1.77;0.80;;;9.20;99.90;;;;;;5014652;28;20441;-68
2023/04/11 05:02:21;;;;;;;2.05;0.80;;;9.20;99.90;;;;;;5004833;28;20100;-70
2023/04/11 05:04:49;;;;;;;5.25;1.40;;;9.20;99.90;;;;;;5007544;28;20232;-70
2023/04/11 05:07:17;;;;;;;3.35;1.33;;;9.20;99.90;;;;;;5004028;28;20540;-68
2023/04/11 05:09:42;;;;;;;2.33;1.05;;;9.10;99.90;;;;;;5008198;28;20037;-70
2023/04/11 05:12:08;;;;;;;3.45;0.98;;;9.10;99.90;;;;;;5006466;28;20179;-68
2023/04/11 05:14:34;;;;;;;5.00;0.90;;;9.10;99.90;;;;;;5002879;28;20611;-68
2023/04/11 05:17:00;;;;;;;3.22;0.93;;;9.10;99.90;;;;;;5004188;28;20508;-68
2023/04/11 05:19:25;;;;;;;7.05;1.15;;;9.10;99.90;;;;;;5000987;28;21920;-68
2023/04/11 05:21:51;;;;;;;3.00;0.68;;;9.10;99.90;;;;;;5007859;28;20405;-68
2023/04/11 05:24:17;;;;;;;2.40;1.60;;;9.00;99.90;;;;;;5008300;28;20037;-68
2023/04/11 05:26:43;;;;;;;7.10;0.88;;;9.00;99.90;;;;;;5012600;28;20481;-70
2023/04/11 05:29:10;;;;;;;3.55;1.00;;;9.00;99.90;;;;;;5015204;28;20409;-72
2023/04/11 05:31:36;;;;;;;3.55;1.10;;;8.90;99.90;;;;;;5011520;28;20393;-68
2023/04/11 05:34:03;;;;;;;5.55;1.10;;;9.00;99.90;;;;;;5001574;28;20732;-68
2023/04/11 05:36:29;;;;;;;3.03;1.30;;;9.00;99.90;;;;;;5016446;28;20044;-71
2023/04/11 05:38:55;;;;;;;4.88;1.10;;;9.00;99.90;;;;;;5015020;28;20030;-69
2023/04/11 05:41:21;;;;;;;2.78;1.05;;;9.00;99.90;;;;;;4997652;28;20032;-68
2023/04/11 05:43:46;;;;;;;4.03;0.95;;;9.00;99.90;;;;;;5009440;28;20048;-71
2023/04/11 05:46:12;;;;;;;3.13;1.00;;;8.90;99.90;;;;;;5009796;28;20038;-70
2023/04/11 05:48:38;;;;;;;3.13;1.00;;;8.90;99.90;;;;;;5017704;28;20029;-69
2023/04/11 05:51:05;;;;;;;4.15;1.27;;;9.00;99.90;;;;;;5014859;28;20075;-69
2023/04/11 05:53:30;;;;;;;2.55;1.17;;;8.90;99.90;;;;;;5018786;28;20045;-69
2023/04/11 05:55:57;;;;;;;5.47;1.27;;;8.90;99.90;;;;;;4994583;28;20029;-69
2023/04/11 05:58:23;;;;;;;4.80;1.17;;;9.00;99.90;;;;;;5009745;28;20060;-69
2023/04/11 06:00:49;;;;;;;5.68;1.05;;;9.10;99.90;;;;;;5008396;28;20461;-70
2023/04/11 06:03:15;;;;;;;4.97;1.80;;;9.20;99.90;;;;;;5008804;28;20104;-70
2023/04/11 06:05:42;;;;;;;4.13;1.25;;;9.20;99.90;;;;;;5015886;28;20041;-70
2023/04/11 06:08:08;;;;;;;6.22;1.27;;;9.20;99.90;;;;;;5015729;28;20022;-69
2023/04/11 06:10:34;;;;;;;5.05;1.40;;;9.30;99.90;;;;;;5012887;28;20028;-70
2023/04/11 06:13:00;;;;;;;3.65;1.00;;;9.30;99.90;;;;;;5014562;28;20038;-73
2023/04/11 06:15:26;;;;;;;3.13;1.05;;;9.30;99.90;;;;;;5011616;28;20025;-71
2023/04/11 06:17:52;;;;;;;8.80;1.67;;;9.30;99.90;;;;;;5004547;28;20021;-68
2023/04/11 06:20:20;;;;;;;4.82;1.63;;;9.30;99.90;;;;;;5011049;28;20518;-69
2023/04/11 06:22:49;;;;;;;3.65;1.30;;;9.30;99.90;;;;;;5011210;28;20777;-71
2023/04/11 06:25:19;;;;;;;5.63;1.23;;;9.30;99.90;;;;;;5015318;28;20030;-69
2023/04/11 06:27:45;;;;;;;5.75;1.60;;;9.30;99.90;;;;;;5018615;28;20041;-72
2023/04/11 06:30:11;;;;;;;5.78;1.60;;;9.30;99.90;;;;;;5017725;28;20037;-69
2023/04/11 06:32:37;;;;;;;8.50;2.28;;;9.40;99.90;;;;;;5018412;28;20037;-71
2023/04/11 06:35:03;;;;;;;9.32;2.08;;;9.30;99.90;;;;;;5018897;28;20071;-71
2023/04/11 06:37:29;;;;;;;5.35;1.50;;;9.40;99.90;;;;;;5019878;28;20030;-69
2023/04/11 06:39:54;;;;;;;4.80;1.58;;;9.30;99.90;;;;;;5016372;28;20288;-69
2023/04/11 06:42:20;;;;;;;4.07;1.33;;;9.30;99.90;;;;;;5015303;28;20030;-70
2023/04/11 06:44:47;;;;;;;7.22;2.13;;;9.30;99.90;;;;;;5016529;28;20108;-68
2023/04/11 06:47:13;;;;;;;7.90;3.00;;;9.30;99.90;;;;;;5017668;28;20026;-69
2023/04/11 06:49:39;;;;;;;6.97;2.38;;;9.20;99.90;;;;;;5023277;28;20045;-69
2023/04/11 06:52:05;;;;;;;3.67;1.60;;;9.30;99.90;;;;;;5019336;28;20215;-70
2023/04/11 06:54:31;;;;;;;4.85;2.13;;;9.30;99.90;;;;;;5019197;28;20400;-70
2023/04/11 06:57:00;;;;;;;5.97;2.63;;;9.30;99.90;;;;;;5010578;28;20030;-70
2023/04/11 06:59:26;;;;;;;5.95;1.90;;;9.30;99.90;;;;;;5013925;28;20044;-69
2023/04/11 07:01:52;;;;;;;13.38;3.22;;;9.40;99.90;;;;;;5014071;28;20030;-69
2023/04/11 07:04:18;;;;;;;4.22;1.67;;;9.40;99.90;;;;;;5016027;28;20117;-69
2023/04/11 07:06:43;;;;;;;4.70;1.60;;;9.40;99.90;;;;;;5012494;28;20037;-69
2023/04/11 07:09:10;;;;;;;4.00;1.10;;;9.40;99.90;;;;;;5015923;28;20465;-70
2023/04/11 07:11:37;;;;;;;2.20;1.15;;;9.40;99.90;;;;;;5019348;28;20033;-71
2023/04/11 07:14:03;;;;;;;3.90;0.60;;;9.40;99.90;;;;;;5013041;28;20036;-70
2023/04/11 07:16:30;;;;;;;1.77;0.60;;;9.30;99.90;;;;;;5014804;28;20171;-69
2023/04/11 07:18:56;;;;;;;2.10;0.88;;;9.30;99.90;;;;;;5016944;28;20052;-69
2023/04/11 07:21:22;;;;;;;1.90;0.50;;;9.10;99.90;;;;;;5016969;28;20030;-70
2023/04/11 07:23:48;;;;;;;1.35;0.65;;;9.00;99.90;;;;;;5011524;28;20029;-69
2023/04/11 07:26:16;;;;;;;2.70;0.50;;;8.90;99.90;;;;;;5014684;28;20514;-69
2023/04/11 07:28:43;;;;;;;1.40;0.80;;;8.80;99.90;;;;;;5016041;28;20034;-68
2023/04/11 07:31:10;;;;;;;0.70;0.50;;;8.80;99.90;;;;;;5014897;28;20026;-70
2023/04/11 07:33:37;;;;;;;1.55;0.47;;;8.80;99.90;;;;;;5016074;28;20041;-70
2023/04/11 07:36:04;;;;;;;2.03;0.45;;;8.60;99.90;;;;;;5017042;28;20548;-69
2023/04/11 07:38:29;;;;;;;0.80;0.40;;;8.60;99.90;;;;;;5048091;28;20025;-68
2023/04/11 07:40:57;;;;;;;2.03;0.40;;;8.70;99.90;;;;;;5017905;28;20037;-70
2023/04/11 07:43:25;;;;;;;1.35;0.50;;;8.70;99.90;;;;;;5047429;28;20478;-68
2023/04/11 07:45:51;;;;;;;3.40;0.52;;;8.70;99.90;;;;;;5019577;28;20026;-68
2023/04/11 07:48:17;;;;;;;2.50;0.50;;;8.70;99.90;;;;;;5024163;28;20022;-69
2023/04/11 07:50:43;;;;;;;2.13;0.50;;;8.80;99.90;;;;;;5023923;28;20536;-69
2023/04/11 07:53:09;;;;;;;3.25;0.95;;;8.70;99.90;;;;;;5021754;28;20029;-68
2023/04/11 07:55:38;;;;;;;1.13;0.60;;;8.80;99.90;;;;;;5017219;28;20119;-68
2023/04/11 07:58:05;;;;;;;1.90;0.50;;;8.70;99.90;;;;;;5016315;28;20389;-68
2023/04/11 08:00:34;;;;;;;1.17;0.50;;;8.70;99.90;;;;;;5015999;28;20593;-69
2023/04/11 08:03:03;;;;;;;2.95;0.65;;;8.60;99.90;;;;;;5013952;28;20038;-69
2023/04/11 08:05:30;;;;;;;1.63;0.80;;;8.60;99.90;;;;;;5011580;28;20514;-68
2023/04/11 08:07:56;;;;;;;3.50;0.98;;;8.50;99.90;;;;;;5014918;28;20025;-69
2023/04/11 08:10:22;;;;;;;2.80;0.90;;;8.50;99.90;;;;;;5015780;28;20034;-68
2023/04/11 08:12:48;;;;;;;2.92;1.27;;;8.50;99.90;;;;;;5012585;28;20072;-68
2023/04/11 08:15:14;;;;;;;4.10;0.95;;;8.50;99.90;;;;;;5016413;28;20041;-69
2023/04/11 08:17:42;;;;;;;3.75;0.85;;;8.40;99.90;;;;;;5014889;28;20044;-69
2023/04/11 08:20:12;;;;;;;2.25;0.77;;;8.40;99.90;;;;;;5016206;28;20397;-68
2023/04/11 08:22:40;;;;;;;2.90;1.00;;;8.40;99.90;;;;;;5016218;28;20049;-69
2023/04/11 08:25:08;;;;;;;2.83;0.80;;;8.40;99.90;;;;;;5013540;28;20034;-69
2023/04/11 08:27:34;;;;;;;2.88;0.98;;;8.40;99.90;;;;;;5011996;28;20093;-69
2023/04/11 08:30:00;;;;;;;2.15;1.20;;;8.50;99.90;;;;;;5014976;28;20110;-69
2023/04/11 08:32:26;;;;;;;3.03;1.00;;;8.60;99.90;;;;;;5017148;28;20041;-70
2023/04/11 08:34:51;;;;;;;1.65;0.80;;;8.60;99.90;;;;;;5016972;28;20030;-69
2023/04/11 08:37:20;;;;;;;2.75;1.13;;;8.70;99.90;;;;;;5016642;28;20025;-69
2023/04/11 08:39:46;;;;;;;3.25;1.00;;;8.80;99.90;;;;;;5014740;28;20025;-68
2023/04/11 08:42:27;;;;;;;2.40;0.82;;;8.80;99.90;;;;;;5017434;28;20027;-70
2023/04/11 08:44:57;;;;;;;2.60;1.00;;;8.90;99.90;;;;;;5052227;28;20040;-72
2023/04/11 08:47:23;;;;;;;1.85;1.40;;;9.00;99.90;;;;;;5017313;28;20025;-71
2023/04/11 08:49:49;;;;;;;2.20;1.40;;;9.00;99.90;;;;;;5018984;28;20037;-71
2023/04/11 08:52:16;;;;;;;1.63;1.10;;;8.90;99.90;;;;;;5021297;28;20028;-69
2023/04/11 08:54:42;;;;;;;4.43;1.58;;;9.00;99.90;;;;;;5035550;28;20029;-69
2023/04/11 08:57:08;;;;;;;4.15;1.80;;;9.00;99.90;;;;;;5017719;28;20048;-68
2023/04/11 08:59:34;;;;;;;5.15;1.98;;;9.00;99.90;;;;;;5021372;28;20447;-67
2023/04/11 09:02:10;;;;;;;6.00;1.77;;;9.00;99.90;;;;;;5017170;28;20022;-69
2023/04/11 09:04:40;;;;;;;3.65;1.70;;;9.10;99.90;;;;;;5052406;28;20053;-69
2023/04/11 09:07:06;;;;;;;3.80;2.13;;;9.20;99.90;;;;;;5017294;28;20101;-71
2023/04/11 09:09:35;;;;;;;6.20;2.63;;;9.30;99.90;;;;;;5019623;28;20108;-68
2023/04/11 09:12:02;;;;;;;2.78;2.17;;;9.30;99.90;;;;;;5020695;28;20026;-69
2023/04/11 09:14:27;;;;;;;8.77;2.90;;;9.30;99.90;;;;;;5020536;28;20036;-68
2023/04/11 09:17:04;;;;;;;7.65;2.85;;;9.30;99.90;;;;;;5016021;28;20033;-69
2023/04/11 09:19:32;;;;;;;5.85;2.33;;;9.40;99.90;;;;;;5020851;28;20033;-69
2023/04/11 09:22:04;;;;;;;5.32;3.20;;;9.40;99.90;;;;;;5018496;28;20104;-69
2023/04/11 09:24:31;;;;;;;8.48;3.30;;;9.40;99.90;;;;;;5021010;28;20450;-69
2023/04/11 09:27:10;;;;;;;7.07;3.38;;;9.40;99.90;;;;;;5019223;28;20025;-68
2023/04/11 09:29:39;;;;;;;13.10;3.08;;;9.40;99.90;;;;;;5020456;28;20025;-70
2023/04/11 09:32:05;;;;;;;10.23;3.97;;;9.40;99.90;;;;;;5018239;28;20062;-70
2023/04/11 09:34:33;;;;;;;6.43;3.70;;;9.40;99.90;;;;;;5017531;28;20466;-69
2023/04/11 09:37:00;;;;;;;6.93;3.55;;;9.30;99.90;;;;;;5017616;28;20052;-69
2023/04/11 09:39:28;;;;;;;6.50;3.53;;;9.20;99.90;;;;;;5021017;28;20021;-70
2023/04/11 09:41:54;;;;;;;5.13;3.28;;;9.30;99.90;;;;;;5022768;28;20022;-69
2023/04/11 09:44:34;;;;;;;6.05;3.13;;;9.30;99.90;;;;;;5017058;28;20025;-72
2023/04/11 09:47:00;;;;;;;8.80;2.53;;;9.30;99.90;;;;;;5047412;28;20080;-71
2023/04/11 09:49:26;;;;;;;5.78;2.42;;;9.40;99.90;;;;;;5019568;28;20034;-70
2023/04/11 09:51:53;;;;;;;6.57;2.58;;;9.60;99.90;;;;;;5017782;28;20072;-69
2023/04/11 09:54:22;;;;;;;3.72;2.35;;;9.70;99.90;;;;;;5034904;28;20429;-70
2023/04/11 09:56:49;;;;;;;4.55;2.50;;;9.80;99.90;;;;;;5019105;28;20052;-71
2023/04/11 09:59:15;;;;;;;5.63;2.15;;;9.80;99.90;;;;;;5015914;28;20032;-70
2023/04/11 10:01:41;;;;;;;6.25;2.53;;;9.80;99.90;;;;;;5019159;28;20131;-70
2023/04/11 10:04:09;;;;;;;4.05;1.90;;;9.80;99.90;;;;;;5028674;28;20048;-69
2023/04/11 10:06:52;;;;;;;7.53;2.35;;;9.70;99.90;;;;;;5027802;28;20026;-70
2023/04/11 10:09:19;;;;;;;8.60;2.22;;;9.70;99.90;;;;;;5022351;28;20038;-70
2023/04/11 10:11:45;;;;;;;6.07;1.67;;;9.60;99.90;;;;;;5018429;28;20033;-69
2023/04/11 10:14:35;;;;;;;3.47;1.90;;;9.50;99.90;;;;;;5018089;28;20437;-69
2023/04/11 10:17:20;;;;;;;4.35;1.98;;;9.50;99.90;;;;;;5015787;28;20022;-70
2023/04/11 10:19:47;;;;;;;2.08;1.17;;;9.40;99.90;;;;;;5034020;28;20273;-71
2023/04/11 10:22:41;;;;;;;4.85;1.15;;;9.30;99.90;;;;;;5015752;28;20022;-69
2023/04/11 10:25:15;;;;;;;3.40;1.27;;;9.10;99.90;;;;;;5015578;28;20030;-70
2023/04/11 10:27:49;;;;;;;3.20;1.48;;;9.10;99.90;;;;;;5018999;28;20136;-70
2023/04/11 10:30:15;;;;;;;3.33;1.08;;;9.10;99.90;;;;;;5017555;28;20033;-70
2023/04/11 10:33:10;;;;;;;3.13;1.10;;;9.10;99.90;;;;;;5015546;28;20056;-70
2023/04/11 10:35:56;;;;;;;2.45;1.58;;;9.10;99.90;;;;;;5020798;28;20028;-70
2023/04/11 10:38:42;;;;;;;3.35;0.95;;;9.20;99.90;;;;;;5037967;28;20026;-70
2023/04/11 10:41:26;;;;;;;2.05;0.70;;;9.20;99.90;;;;;;5020179;28;20306;-69
2023/04/11 10:44:19;;;;;;;4.57;1.77;;;9.20;99.90;;;;;;5016304;28;20033;-70
2023/04/11 10:46:52;;;;;;;3.40;0.95;;;9.30;99.90;;;;;;5014805;28;20121;-69
2023/04/11 10:49:36;;;;;;;1.67;1.02;;;9.30;99.90;;;;;;5039172;28;20049;-70
2023/04/11 10:52:21;;;;;;;6.25;0.75;;;9.30;99.90;;;;;;5021966;28;20030;-68
2023/04/11 10:54:49;;;;;;;4.70;1.02;;;9.40;99.90;;;;;;5017935;28;20359;-70
2023/04/11 10:57:15;;;;;;;1.63;0.63;;;9.60;99.90;;;;;;5046396;28;20026;-70
2023/04/11 10:59:41;;;;;;;3.15;0.90;;;9.60;99.90;;;;;;5017950;28;20627;-71
2023/04/11 11:02:07;;;;;;;1.00;0.50;;;9.60;99.90;;;;;;5016993;28;20049;-70
2023/04/11 11:04:35;;;;;;;2.55;0.80;;;9.50;99.90;;;;;;5016721;28;20047;-69
2023/04/11 11:07:03;;;;;;;2.88;0.77;;;9.50;99.90;;;;;;5017008;28;20040;-71
2023/04/11 11:09:30;;;;;;;3.70;0.95;;;9.50;99.90;;;;;;5018457;28;20080;-70
2023/04/11 11:12:09;;;;;;;3.05;1.00;;;9.60;99.90;;;;;;5014700;28;20026;-70
2023/04/11 11:14:36;;;;;;;1.50;0.88;;;9.50;99.90;;;;;;5017767;28;20036;-70
2023/04/11 11:17:02;;;;;;;1.73;0.70;;;9.50;99.90;;;;;;5014837;28;20520;-70
2023/04/11 11:19:30;;;;;;;2.72;0.80;;;9.40;99.90;;;;;;5015544;28;20038;-70
2023/04/11 11:22:00;;;;;;;1.50;0.73;;;9.40;99.90;;;;;;5014746;28;20061;-69
2023/04/11 11:24:26;;;;;;;1.58;0.80;;;9.50;99.90;;;;;;5011314;28;20083;-69
2023/04/11 11:26:53;;;;;;;1.42;0.68;;;9.70;99.90;;;;;;5017552;28;20033;-70
2023/04/11 11:29:34;;;;;;;3.67;0.80;;;9.80;99.90;;;;;;5015068;28;20057;-69
2023/04/11 11:32:03;;;;;;;3.40;1.00;;;9.70;99.90;;;;;;5014538;28;20030;-69
2023/04/11 11:34:30;;;;;;;4.25;1.10;;;9.70;99.90;;;;;;5017133;28;20041;-70
2023/04/11 11:36:57;;;;;;;6.70;1.00;;;9.60;99.90;;;;;;5016848;28;20030;-68
2023/04/11 11:39:24;;;;;;;5.38;1.20;;;9.60;99.90;;;;;;5019710;28;20343;-69
2023/04/11 11:41:52;;;;;;;1.60;1.15;;;9.60;99.90;;;;;;5015114;28;20032;-68
2023/04/11 11:44:36;;;;;;;3.20;1.13;;;9.50;99.90;;;;;;5014417;28;20034;-70
2023/04/11 11:47:11;;;;;;;3.22;1.08;;;9.40;99.90;;;;;;4998827;28;20733;-70
2023/04/11 11:49:43;;;;;;;2.17;1.02;;;9.30;99.90;;;;;;5015619;28;20022;-69
2023/04/11 11:52:10;;;;;;;3.40;1.25;;;9.30;99.90;;;;;;5015326;28;20018;-69
2023/04/11 11:54:44;;;;;;;6.53;1.40;;;9.30;99.90;;;;;;5015287;28;20034;-69
2023/04/11 11:57:10;;;;;;;3.80;1.10;;;9.30;99.90;;;;;;5028074;28;20084;-68
2023/04/11 11:59:36;;;;;;;4.63;1.20;;;9.30;99.90;;;;;;5013589;28;20272;-68
2023/04/11 12:02:03;;;;;;;5.72;1.50;;;9.20;99.90;;;;;;5015711;28;20506;-70
2023/04/11 12:04:30;;;;;;;6.90;1.85;;;9.20;99.90;;;;;;5014710;28;20033;-68
2023/04/11 12:06:56;;;;;;;5.20;1.65;;;9.20;99.90;;;;;;5015810;28;20037;-69
2023/04/11 12:09:29;;;;;;;5.57;2.00;;;9.20;99.90;;;;;;5018066;28;20029;-69
2023/04/11 12:11:55;;;;;;;4.03;1.20;;;9.40;99.90;;;;;;5014233;28;20061;-68
2023/04/11 12:14:23;;;;;;;6.93;1.45;;;9.60;99.90;;;;;;5017369;28;20053;-69
2023/04/11 12:16:53;;;;;;;2.63;1.00;;;9.60;99.90;;;;;;5018087;28;20529;-70
2023/04/11 12:19:18;;;;;;;7.25;1.70;;;9.80;99.90;;;;;;5023242;28;20530;-69
2023/04/11 12:21:44;;;;;;;4.05;1.52;;;10.00;99.90;;;;;;5002468;28;20591;-68
2023/04/11 12:24:10;;;;;;;3.17;0.90;;;10.00;99.90;;;;;;5021450;28;20072;-68
2023/04/11 12:26:35;;;;;;;2.53;1.10;;;10.00;99.90;;;;;;5022047;28;20096;-70
2023/04/11 12:29:02;;;;;;;3.63;0.80;;;10.00;99.90;;;;;;5020000;28;20050;-70
2023/04/11 12:31:28;;;;;;;2.42;0.80;;;10.10;99.90;;;;;;5021762;28;20524;-71
2023/04/11 12:33:53;;;;;;;3.75;1.27;;;10.30;99.90;;;;;;5021835;28;20033;-69
2023/04/11 12:36:20;;;;;;;5.03;1.23;;;10.40;99.90;;;;;;5021524;28;20104;-70
2023/04/11 12:38:46;;;;;;;7.57;1.40;;;10.40;99.90;;;;;;5021347;28;20033;-68
2023/04/11 12:41:12;;;;;;;7.82;1.67;;;10.30;99.90;;;;;;5020189;28;20021;-69
2023/04/11 12:43:37;;;;;;;6.82;1.58;;;10.40;99.90;;;;;;5018579;28;20101;-70
2023/04/11 12:46:04;;;;;;;4.70;1.20;;;10.10;99.90;;;;;;5019307;28;20026;-69
2023/04/11 12:48:30;;;;;;;6.72;1.38;;;10.00;99.90;;;;;;5021289;28;20018;-71
2023/04/11 12:50:55;;;;;;;7.70;1.40;;;10.00;99.90;;;;;;5019662;28;20032;-71
2023/04/11 12:53:21;;;;;;;3.30;1.00;;;10.00;99.90;;;;;;5004938;28;20173;-70
2023/04/11 12:55:47;;;;;;;3.90;1.35;;;10.10;99.90;;;;;;5021321;28;20039;-69